sensor_id;sensor_type;location;lat;lon;timestamp;temperature;humidity
2723;DHT22;1369;53.216;10.396;2023-11-21T00:01:54;9.80;99.90
2723;DHT22;1369;53.216;10.396;2023-11-21T00:04:20;9.80;99.90
2723;DHT22;1369;53.216;10.396;2023-11-21T00:06:45;9.80;99.90
2723;DHT22;1369;53.216;10.396;2023-11-21T00:09:13;9.80;99.90
2723;DHT22;1369;53.216;10.396;2023-11-21T00:11:41;9.90;99.90
2723;DHT22;1369;53.216;10.396;2023-11-21T00:14:06;9.80;99.90
2723;DHT22;1369;53.216;10.396;2023-11-21T00:16:32;9.70;99.90
2723;DHT22;1369;53.216;10.396;2023-11-21T00:18:57;9.80;99.90
2723;DHT22;1369;53.216;10.396;2023-11-21T00:21:23;9.80;99.90
2723;DHT22;1369;53.216;10.396;2023-11-21T00:23:48;9.80;99.90
2723;DHT22;1369;53.216;10.396;2023-11-21T00:26:14;9.70;99.90
2723;DHT22;1369;53.216;10.396;2023-11-21T00:28:39;9.70;99.90
2723;DHT22;1369;53.216;10.396;2023-11-21T00:31:05;9.80;99.90
2723;DHT22;1369;53.216;10.396;2023-11-21T00:33:31;9.80;99.90
2723;DHT22;1369;53.216;10.396;2023-11-21T00:35:57;9.70;99.90
2723;DHT22;1369;53.216;10.396;2023-11-21T00:38:22;9.60;99.90
2723;DHT22;1369;53.216;10.396;2023-11-21T00:40:48;9.50;99.90
2723;DHT22;1369;53.216;10.396;2023-11-21T00:43:14;9.30;99.90
2723;DHT22;1369;53.216;10.396;2023-11-21T00:45:40;9.30;99.90
2723;DHT22;1369;53.216;10.396;2023-11-21T00:48:06;9.20;99.90
2723;DHT22;1369;53.216;10.396;2023-11-21T00:50:33;9.20;99.90
2723;DHT22;1369;53.216;10.396;2023-11-21T00:52:59;9.30;99.90
2723;DHT22;1369;53.216;10.396;2023-11-21T00:55:24;9.00;99.90
2723;DHT22;1369;53.216;10.396;2023-11-21T00:57:51;9.10;99.90
2723;DHT22;1369;53.216;10.396;2023-11-21T01:00:17;9.20;99.90
2723;DHT22;1369;53.216;10.396;2023-11-21T01:02:46;9.20;99.90
2723;DHT22;1369;53.216;10.396;2023-11-21T01:05:12;9.20;99.90
2723;DHT22;1369;53.216;10.396;2023-11-21T01:07:38;9.10;99.90
2723;DHT22;1369;53.216;10.396;2023-11-21T01:10:04;9.00;99.90
2723;DHT22;1369;53.216;10.396;2023-11-21T01:12:34;9.00;99.90
2723;DHT22;1369;53.216;10.396;2023-11-21T01:14:59;8.90;99.90
2723;DHT22;1369;53.216;10.396;2023-11-21T01:17:26;8.90;99.90
2723;DHT22;1369;53.216;10.396;2023-11-21T01:19:52;8.90;99.90
2723;DHT22;1369;53.216;10.396;2023-11-21T01:22:18;8.80;99.90
2723;DHT22;1369;53.216;10.396;2023-11-21T01:24:47;8.80;99.90
2723;DHT22;1369;53.216;10.396;2023-11-21T01:27:13;8.70;99.90
2723;DHT22;1369;53.216;10.396;2023-11-21T01:29:38;8.70;99.90
2723;DHT22;1369;53.216;10.396;2023-11-21T01:32:05;8.70;99.90
2723;DHT22;1369;53.216;10.396;2023-11-21T01:34:33;8.60;99.90
2723;DHT22;1369;53.216;10.396;2023-11-21T01:36:58;8.50;99.90
2723;DHT22;1369;53.216;10.396;2023-11-21T01:39:25;8.60;99.90
2723;DHT22;1369;53.216;10.396;2023-11-21T01:41:51;8.60;99.90
2723;DHT22;1369;53.216;10.396;2023-11-21T01:44:17;8.60;99.90
2723;DHT22;1369;53.216;10.396;2023-11-21T01:46:45;8.50;99.90
2723;DHT22;1369;53.216;10.396;2023-11-21T01:49:12;8.40;99.90
2723;DHT22;1369;53.216;10.396;2023-11-21T01:51:40;8.40;99.90
2723;DHT22;1369;53.216;10.396;2023-11-21T01:54:06;8.30;99.90
2723;DHT22;1369;53.216;10.396;2023-11-21T01:56:32;8.40;99.90
2723;DHT22;1369;53.216;10.396;2023-11-21T01:58:59;8.40;99.90
2723;DHT22;1369;53.216;10.396;2023-11-21T02:01:24;8.40;99.90
2723;DHT22;1369;53.216;10.396;2023-11-21T02:03:51;8.40;99.90
2723;DHT22;1369;53.216;10.396;2023-11-21T02:06:18;8.40;99.90
2723;DHT22;1369;53.216;10.396;2023-11-21T02:08:43;8.40;99.90
2723;DHT22;1369;53.216;10.396;2023-11-21T02:11:10;8.30;99.90
2723;DHT22;1369;53.216;10.396;2023-11-21T02:13:38;8.30;99.90
2723;DHT22;1369;53.216;10.396;2023-11-21T02:16:09;8.20;99.90
2723;DHT22;1369;53.216;10.396;2023-11-21T02:18:36;8.00;99.90
2723;DHT22;1369;53.216;10.396;2023-11-21T02:21:04;8.00;99.90
2723;DHT22;1369;53.216;10.396;2023-11-21T02:23:30;7.80;99.90
2723;DHT22;1369;53.216;10.396;2023-11-21T02:25:55;7.80;99.90
2723;DHT22;1369;53.216;10.396;2023-11-21T02:28:21;7.80;99.90
2723;DHT22;1369;53.216;10.396;2023-11-21T02:30:51;7.90;99.90
2723;DHT22;1369;53.216;10.396;2023-11-21T02:33:21;7.90;99.90
2723;DHT22;1369;53.216;10.396;2023-11-21T02:35:47;7.90;99.90
2723;DHT22;1369;53.216;10.396;2023-11-21T02:38:13;8.40;99.90
2723;DHT22;1369;53.216;10.396;2023-11-21T02:40:39;7.70;99.90
2723;DHT22;1369;53.216;10.396;2023-11-21T02:43:04;7.60;99.90
2723;DHT22;1369;53.216;10.396;2023-11-21T02:45:31;7.70;99.90
2723;DHT22;1369;53.216;10.396;2023-11-21T02:47:57;7.60;99.90
2723;DHT22;1369;53.216;10.396;2023-11-21T02:50:23;7.70;99.90
2723;DHT22;1369;53.216;10.396;2023-11-21T02:52:49;7.90;99.90
2723;DHT22;1369;53.216;10.396;2023-11-21T02:55:15;7.80;99.90
2723;DHT22;1369;53.216;10.396;2023-11-21T02:57:40;7.80;99.90
2723;DHT22;1369;53.216;10.396;2023-11-21T03:00:06;7.80;99.90
2723;DHT22;1369;53.216;10.396;2023-11-21T03:02:33;7.80;99.90
2723;DHT22;1369;53.216;10.396;2023-11-21T03:05:02;7.80;99.90
2723;DHT22;1369;53.216;10.396;2023-11-21T03:07:27;7.80;99.90
2723;DHT22;1369;53.216;10.396;2023-11-21T03:09:53;7.70;99.90
2723;DHT22;1369;53.216;10.396;2023-11-21T03:12:19;7.70;99.90
2723;DHT22;1369;53.216;10.396;2023-11-21T03:14:45;7.70;99.90
2723;DHT22;1369;53.216;10.396;2023-11-21T03:17:10;7.60;99.90
2723;DHT22;1369;53.216;10.396;2023-11-21T03:19:36;7.60;99.90
2723;DHT22;1369;53.216;10.396;2023-11-21T03:22:02;7.70;99.90
2723;DHT22;1369;53.216;10.396;2023-11-21T03:24:29;7.70;99.90
2723;DHT22;1369;53.216;10.396;2023-11-21T03:26:55;7.60;99.90
2723;DHT22;1369;53.216;10.396;2023-11-21T03:29:20;7.70;99.90
2723;DHT22;1369;53.216;10.396;2023-11-21T03:31:46;7.70;99.90
2723;DHT22;1369;53.216;10.396;2023-11-21T03:34:23;7.50;99.90
2723;DHT22;1369;53.216;10.396;2023-11-21T03:36:48;7.60;99.90
2723;DHT22;1369;53.216;10.396;2023-11-21T03:39:14;8.50;99.90
2723;DHT22;1369;53.216;10.396;2023-11-21T03:41:39;8.50;99.90
2723;DHT22;1369;53.216;10.396;2023-11-21T03:44:05;7.60;99.90
2723;DHT22;1369;53.216;10.396;2023-11-21T03:46:31;7.50;99.90
2723;DHT22;1369;53.216;10.396;2023-11-21T03:48:56;7.30;99.90
2723;DHT22;1369;53.216;10.396;2023-11-21T03:51:22;7.30;99.90
2723;DHT22;1369;53.216;10.396;2023-11-21T03:53:47;7.40;99.90
2723;DHT22;1369;53.216;10.396;2023-11-21T03:56:14;7.30;99.90
2723;DHT22;1369;53.216;10.396;2023-11-21T03:58:39;7.30;99.90
2723;DHT22;1369;53.216;10.396;2023-11-21T04:01:05;7.80;99.90
2723;DHT22;1369;53.216;10.396;2023-11-21T04:03:31;7.40;99.90
2723;DHT22;1369;53.216;10.396;2023-11-21T04:05:56;8.50;99.90
2723;DHT22;1369;53.216;10.396;2023-11-21T04:08:22;8.10;99.90
2723;DHT22;1369;53.216;10.396;2023-11-21T04:10:48;8.00;99.90
2723;DHT22;1369;53.216;10.396;2023-11-21T04:13:14;7.40;99.90
2723;DHT22;1369;53.216;10.396;2023-11-21T04:15:39;7.40;99.90
2723;DHT22;1369;53.216;10.396;2023-11-21T04:18:05;7.70;99.90
2723;DHT22;1369;53.216;10.396;2023-11-21T04:20:30;7.30;99.90
2723;DHT22;1369;53.216;10.396;2023-11-21T04:22:56;7.40;99.90
2723;DHT22;1369;53.216;10.396;2023-11-21T04:25:22;7.30;99.90
2723;DHT22;1369;53.216;10.396;2023-11-21T04:27:48;7.30;99.90
2723;DHT22;1369;53.216;10.396;2023-11-21T04:30:14;7.40;99.90
2723;DHT22;1369;53.216;10.396;2023-11-21T04:32:40;7.40;99.90
2723;DHT22;1369;53.216;10.396;2023-11-21T04:35:07;7.40;99.90
2723;DHT22;1369;53.216;10.396;2023-11-21T04:37:34;7.40;99.90
2723;DHT22;1369;53.216;10.396;2023-11-21T04:39:59;7.40;99.90
2723;DHT22;1369;53.216;10.396;2023-11-21T04:42:25;7.40;99.90
2723;DHT22;1369;53.216;10.396;2023-11-21T04:47:18;7.40;99.90
2723;DHT22;1369;53.216;10.396;2023-11-21T04:49:46;7.40;99.90
2723;DHT22;1369;53.216;10.396;2023-11-21T04:52:12;7.40;99.90
2723;DHT22;1369;53.216;10.396;2023-11-21T04:54:38;7.50;99.90
2723;DHT22;1369;53.216;10.396;2023-11-21T04:57:05;7.40;99.90
2723;DHT22;1369;53.216;10.396;2023-11-21T04:59:33;7.50;99.90
2723;DHT22;1369;53.216;10.396;2023-11-21T05:01:58;7.50;99.90
2723;DHT22;1369;53.216;10.396;2023-11-21T05:04:25;7.90;99.90
2723;DHT22;1369;53.216;10.396;2023-11-21T05:06:51;7.30;99.90
2723;DHT22;1369;53.216;10.396;2023-11-21T05:09:16;7.80;99.90
2723;DHT22;1369;53.216;10.396;2023-11-21T05:11:43;7.40;99.90
2723;DHT22;1369;53.216;10.396;2023-11-21T05:14:08;7.20;99.90
2723;DHT22;1369;53.216;10.396;2023-11-21T05:16:34;7.20;99.90
2723;DHT22;1369;53.216;10.396;2023-11-21T05:19:00;7.10;99.90
2723;DHT22;1369;53.216;10.396;2023-11-21T05:21:30;7.10;99.90
2723;DHT22;1369;53.216;10.396;2023-11-21T05:23:58;7.20;99.90
2723;DHT22;1369;53.216;10.396;2023-11-21T05:26:24;7.10;99.90
2723;DHT22;1369;53.216;10.396;2023-11-21T05:28:50;7.10;99.90
2723;DHT22;1369;53.216;10.396;2023-11-21T05:31:15;7.10;99.90
2723;DHT22;1369;53.216;10.396;2023-11-21T05:33:41;7.10;99.90
2723;DHT22;1369;53.216;10.396;2023-11-21T05:36:07;7.10;99.90
2723;DHT22;1369;53.216;10.396;2023-11-21T05:38:34;7.10;99.90
2723;DHT22;1369;53.216;10.396;2023-11-21T05:41:01;7.10;99.90
2723;DHT22;1369;53.216;10.396;2023-11-21T05:43:26;7.10;99.90
2723;DHT22;1369;53.216;10.396;2023-11-21T05:45:54;7.10;99.90
2723;DHT22;1369;53.216;10.396;2023-11-21T05:48:20;7.10;99.90
2723;DHT22;1369;53.216;10.396;2023-11-21T05:50:46;7.00;99.90
2723;DHT22;1369;53.216;10.396;2023-11-21T05:53:13;7.10;99.90
2723;DHT22;1369;53.216;10.396;2023-11-21T05:55:41;7.10;99.90
2723;DHT22;1369;53.216;10.396;2023-11-21T05:58:07;7.10;99.90
2723;DHT22;1369;53.216;10.396;2023-11-21T06:00:33;7.10;99.90
2723;DHT22;1369;53.216;10.396;2023-11-21T06:02:59;7.10;99.90
2723;DHT22;1369;53.216;10.396;2023-11-21T06:05:26;7.00;99.90
2723;DHT22;1369;53.216;10.396;2023-11-21T06:07:53;7.10;99.90
2723;DHT22;1369;53.216;10.396;2023-11-21T06:10:21;7.00;99.90
2723;DHT22;1369;53.216;10.396;2023-11-21T06:12:46;7.00;99.90
2723;DHT22;1369;53.216;10.396;2023-11-21T06:15:12;7.00;99.90
2723;DHT22;1369;53.216;10.396;2023-11-21T06:17:42;7.00;99.90
2723;DHT22;1369;53.216;10.396;2023-11-21T06:20:10;7.00;99.90
2723;DHT22;1369;53.216;10.396;2023-11-21T06:22:45;6.90;99.90
2723;DHT22;1369;53.216;10.396;2023-11-21T06:25:11;6.90;99.90
2723;DHT22;1369;53.216;10.396;2023-11-21T06:27:39;6.90;99.90
2723;DHT22;1369;53.216;10.396;2023-11-21T06:30:06;6.80;99.90
2723;DHT22;1369;53.216;10.396;2023-11-21T06:32:34;6.80;99.90
2723;DHT22;1369;53.216;10.396;2023-11-21T06:35:04;6.80;99.90
2723;DHT22;1369;53.216;10.396;2023-11-21T06:37:31;6.80;99.90
2723;DHT22;1369;53.216;10.396;2023-11-21T06:39:58;6.80;99.90
2723;DHT22;1369;53.216;10.396;2023-11-21T06:42:27;6.80;99.90
2723;DHT22;1369;53.216;10.396;2023-11-21T06:44:53;6.90;99.90
2723;DHT22;1369;53.216;10.396;2023-11-21T06:47:27;6.90;99.90
2723;DHT22;1369;53.216;10.396;2023-11-21T06:49:55;7.00;99.90
2723;DHT22;1369;53.216;10.396;2023-11-21T06:52:20;6.90;99.90
2723;DHT22;1369;53.216;10.396;2023-11-21T06:54:47;6.90;99.90
2723;DHT22;1369;53.216;10.396;2023-11-21T06:57:15;6.90;99.90
2723;DHT22;1369;53.216;10.396;2023-11-21T06:59:40;6.90;99.90
2723;DHT22;1369;53.216;10.396;2023-11-21T07:02:06;6.90;99.90
2723;DHT22;1369;53.216;10.396;2023-11-21T07:04:41;6.90;99.90
2723;DHT22;1369;53.216;10.396;2023-11-21T07:07:06;6.90;99.90
2723;DHT22;1369;53.216;10.396;2023-11-21T07:09:32;7.00;99.90
2723;DHT22;1369;53.216;10.396;2023-11-21T07:11:58;7.00;99.90
2723;DHT22;1369;53.216;10.396;2023-11-21T07:14:23;7.00;99.90
2723;DHT22;1369;53.216;10.396;2023-11-21T07:16:49;7.10;99.90
2723;DHT22;1369;53.216;10.396;2023-11-21T07:19:15;7.10;99.90
2723;DHT22;1369;53.216;10.396;2023-11-21T07:21:40;7.00;99.90
2723;DHT22;1369;53.216;10.396;2023-11-21T07:24:07;7.10;99.90
2723;DHT22;1369;53.216;10.396;2023-11-21T07:26:33;7.10;99.90
2723;DHT22;1369;53.216;10.396;2023-11-21T07:29:03;7.10;99.90
2723;DHT22;1369;53.216;10.396;2023-11-21T07:31:29;7.10;99.90
2723;DHT22;1369;53.216;10.396;2023-11-21T07:33:55;7.20;99.90
2723;DHT22;1369;53.216;10.396;2023-11-21T07:36:23;7.20;99.90
2723;DHT22;1369;53.216;10.396;2023-11-21T07:38:50;7.30;99.90
2723;DHT22;1369;53.216;10.396;2023-11-21T07:41:17;7.30;99.90
2723;DHT22;1369;53.216;10.396;2023-11-21T07:43:43;7.30;99.90
2723;DHT22;1369;53.216;10.396;2023-11-21T07:46:10;7.40;99.90
2723;DHT22;1369;53.216;10.396;2023-11-21T07:48:38;7.40;99.90
2723;DHT22;1369;53.216;10.396;2023-11-21T07:51:04;7.40;99.90
2723;DHT22;1369;53.216;10.396;2023-11-21T07:53:30;7.40;99.90
2723;DHT22;1369;53.216;10.396;2023-11-21T07:55:56;7.40;99.90
2723;DHT22;1369;53.216;10.396;2023-11-21T07:58:22;7.40;99.90
2723;DHT22;1369;53.216;10.396;2023-11-21T08:00:49;7.40;99.90
2723;DHT22;1369;53.216;10.396;2023-11-21T08:03:16;7.40;99.90
2723;DHT22;1369;53.216;10.396;2023-11-21T08:05:42;7.40;99.90
2723;DHT22;1369;53.216;10.396;2023-11-21T08:08:08;7.40;99.90
2723;DHT22;1369;53.216;10.396;2023-11-21T08:10:34;7.40;99.90
2723;DHT22;1369;53.216;10.396;2023-11-21T08:13:01;7.40;99.90
2723;DHT22;1369;53.216;10.396;2023-11-21T08:15:27;7.40;99.90
2723;DHT22;1369;53.216;10.396;2023-11-21T08:17:52;7.40;99.90
2723;DHT22;1369;53.216;10.396;2023-11-21T08:20:19;7.40;99.90
2723;DHT22;1369;53.216;10.396;2023-11-21T08:22:45;7.40;99.90
2723;DHT22;1369;53.216;10.396;2023-11-21T08:25:13;7.40;99.90
2723;DHT22;1369;53.216;10.396;2023-11-21T08:27:38;7.40;99.90
2723;DHT22;1369;53.216;10.396;2023-11-21T08:30:05;7.40;99.90
2723;DHT22;1369;53.216;10.396;2023-11-21T08:32:31;7.40;99.90
2723;DHT22;1369;53.216;10.396;2023-11-21T08:35:00;7.50;99.90
2723;DHT22;1369;53.216;10.396;2023-11-21T08:37:26;7.50;99.90
2723;DHT22;1369;53.216;10.396;2023-11-21T08:39:52;7.60;99.90
2723;DHT22;1369;53.216;10.396;2023-11-21T08:42:18;7.60;99.90
2723;DHT22;1369;53.216;10.396;2023-11-21T08:44:44;7.50;99.90
2723;DHT22;1369;53.216;10.396;2023-11-21T08:47:10;7.40;99.90
2723;DHT22;1369;53.216;10.396;2023-11-21T08:49:36;7.40;99.90
2723;DHT22;1369;53.216;10.396;2023-11-21T08:52:01;7.50;99.90
2723;DHT22;1369;53.216;10.396;2023-11-21T08:54:27;7.50;99.90
2723;DHT22;1369;53.216;10.396;2023-11-21T08:56:54;7.50;99.90
2723;DHT22;1369;53.216;10.396;2023-11-21T08:59:20;7.50;99.90
2723;DHT22;1369;53.216;10.396;2023-11-21T09:01:46;7.50;99.90
2723;DHT22;1369;53.216;10.396;2023-11-21T09:04:12;7.60;99.90
2723;DHT22;1369;53.216;10.396;2023-11-21T09:06:39;7.70;99.90
2723;DHT22;1369;53.216;10.396;2023-11-21T09:09:05;7.70;99.90
2723;DHT22;1369;53.216;10.396;2023-11-21T09:11:32;7.60;99.90
2723;DHT22;1369;53.216;10.396;2023-11-21T09:13:59;7.70;99.90
2723;DHT22;1369;53.216;10.396;2023-11-21T09:16:25;7.80;99.90
2723;DHT22;1369;53.216;10.396;2023-11-21T09:18:51;7.80;99.90
2723;DHT22;1369;53.216;10.396;2023-11-21T09:21:17;7.80;99.90
2723;DHT22;1369;53.216;10.396;2023-11-21T09:23:44;7.90;99.90
2723;DHT22;1369;53.216;10.396;2023-11-21T09:26:10;8.00;99.90
2723;DHT22;1369;53.216;10.396;2023-11-21T09:28:36;8.00;99.90
2723;DHT22;1369;53.216;10.396;2023-11-21T09:31:04;8.10;99.90
2723;DHT22;1369;53.216;10.396;2023-11-21T09:33:33;8.00;99.90
2723;DHT22;1369;53.216;10.396;2023-11-21T09:35:59;8.10;99.90
2723;DHT22;1369;53.216;10.396;2023-11-21T09:38:25;8.10;99.90
2723;DHT22;1369;53.216;10.396;2023-11-21T09:40:51;8.20;99.90
2723;DHT22;1369;53.216;10.396;2023-11-21T09:43:19;8.30;99.90
2723;DHT22;1369;53.216;10.396;2023-11-21T09:45:46;8.10;99.90
2723;DHT22;1369;53.216;10.396;2023-11-21T09:48:14;8.20;99.90
2723;DHT22;1369;53.216;10.396;2023-11-21T09:50:42;8.30;99.90
2723;DHT22;1369;53.216;10.396;2023-11-21T09:55:44;8.00;99.90
2723;DHT22;1369;53.216;10.396;2023-11-21T09:58:12;8.10;99.90
2723;DHT22;1369;53.216;10.396;2023-11-21T10:00:45;8.20;99.90
2723;DHT22;1369;53.216;10.396;2023-11-21T10:03:12;8.20;99.90
2723;DHT22;1369;53.216;10.396;2023-11-21T10:05:39;8.20;99.90
2723;DHT22;1369;53.216;10.396;2023-11-21T10:08:09;8.30;99.90
2723;DHT22;1369;53.216;10.396;2023-11-21T10:10:36;8.30;99.90
2723;DHT22;1369;53.216;10.396;2023-11-21T10:13:05;8.30;99.90
2723;DHT22;1369;53.216;10.396;2023-11-21T10:15:34;8.20;99.90
2723;DHT22;1369;53.216;10.396;2023-11-21T10:18:02;8.30;99.90
2723;DHT22;1369;53.216;10.396;2023-11-21T10:20:28;8.20;99.90
2723;DHT22;1369;53.216;10.396;2023-11-21T10:22:54;8.30;99.90
2723;DHT22;1369;53.216;10.396;2023-11-21T10:25:22;8.10;99.90
2723;DHT22;1369;53.216;10.396;2023-11-21T10:27:48;8.20;99.90
2723;DHT22;1369;53.216;10.396;2023-11-21T10:30:17;8.20;99.90
2723;DHT22;1369;53.216;10.396;2023-11-21T10:32:46;8.20;99.90
2723;DHT22;1369;53.216;10.396;2023-11-21T10:35:15;8.10;99.90
2723;DHT22;1369;53.216;10.396;2023-11-21T10:37:41;8.10;99.90
2723;DHT22;1369;53.216;10.396;2023-11-21T10:40:08;8.10;99.90
2723;DHT22;1369;53.216;10.396;2023-11-21T10:42:41;8.10;99.90
2723;DHT22;1369;53.216;10.396;2023-11-21T10:45:10;8.20;99.90
2723;DHT22;1369;53.216;10.396;2023-11-21T10:47:42;8.20;99.90
2723;DHT22;1369;53.216;10.396;2023-11-21T10:50:09;8.20;99.90
2723;DHT22;1369;53.216;10.396;2023-11-21T10:52:45;8.30;99.90
2723;DHT22;1369;53.216;10.396;2023-11-21T10:55:19;8.20;99.90
2723;DHT22;1369;53.216;10.396;2023-11-21T10:57:52;8.40;99.90
2723;DHT22;1369;53.216;10.396;2023-11-21T11:00:19;8.60;99.90
2723;DHT22;1369;53.216;10.396;2023-11-21T11:02:49;8.60;99.90
2723;DHT22;1369;53.216;10.396;2023-11-21T11:05:19;8.70;99.90
2723;DHT22;1369;53.216;10.396;2023-11-21T11:07:45;8.80;99.90
2723;DHT22;1369;53.216;10.396;2023-11-21T11:10:13;8.90;99.90
2723;DHT22;1369;53.216;10.396;2023-11-21T11:12:43;8.80;99.90
2723;DHT22;1369;53.216;10.396;2023-11-21T11:15:11;8.60;99.90
2723;DHT22;1369;53.216;10.396;2023-11-21T11:17:37;8.50;99.90
2723;DHT22;1369;53.216;10.396;2023-11-21T11:20:09;8.40;99.90
2723;DHT22;1369;53.216;10.396;2023-11-21T11:31:40;8.50;99.90
2723;DHT22;1369;53.216;10.396;2023-11-21T11:34:29;8.40;99.90
2723;DHT22;1369;53.216;10.396;2023-11-21T11:37:06;8.50;99.90
2723;DHT22;1369;53.216;10.396;2023-11-21T11:42:03;8.60;99.90
2723;DHT22;1369;53.216;10.396;2023-11-21T11:47:22;8.50;99.90
2723;DHT22;1369;53.216;10.396;2023-11-21T11:50:09;8.40;99.90
2723;DHT22;1369;53.216;10.396;2023-11-21T11:52:53;8.40;99.90
2723;DHT22;1369;53.216;10.396;2023-11-21T11:55:21;8.50;99.90
2723;DHT22;1369;53.216;10.396;2023-11-21T11:57:58;8.30;99.90
2723;DHT22;1369;53.216;10.396;2023-11-21T12:02:56;8.30;99.90
2723;DHT22;1369;53.216;10.396;2023-11-21T12:05:23;8.30;99.90
2723;DHT22;1369;53.216;10.396;2023-11-21T12:07:52;8.10;99.90
2723;DHT22;1369;53.216;10.396;2023-11-21T12:10:21;8.00;99.90
2723;DHT22;1369;53.216;10.396;2023-11-21T12:12:59;8.00;99.90
2723;DHT22;1369;53.216;10.396;2023-11-21T12:15:25;8.00;99.90
2723;DHT22;1369;53.216;10.396;2023-11-21T12:17:52;8.10;99.90
2723;DHT22;1369;53.216;10.396;2023-11-21T12:20:25;8.00;99.90
2723;DHT22;1369;53.216;10.396;2023-11-21T12:22:56;7.90;99.90
2723;DHT22;1369;53.216;10.396;2023-11-21T12:25:28;7.90;99.90
2723;DHT22;1369;53.216;10.396;2023-11-21T12:27:57;7.80;99.90
2723;DHT22;1369;53.216;10.396;2023-11-21T12:30:25;7.80;99.90
2723;DHT22;1369;53.216;10.396;2023-11-21T12:32:55;7.80;99.90
2723;DHT22;1369;53.216;10.396;2023-11-21T12:35:23;7.80;99.90
2723;DHT22;1369;53.216;10.396;2023-11-21T12:37:49;7.90;99.90
2723;DHT22;1369;53.216;10.396;2023-11-21T12:40:18;7.90;99.90
2723;DHT22;1369;53.216;10.396;2023-11-21T12:42:48;7.90;99.90
2723;DHT22;1369;53.216;10.396;2023-11-21T12:47:50;8.00;99.90
2723;DHT22;1369;53.216;10.396;2023-11-21T12:50:23;7.90;99.90
2723;DHT22;1369;53.216;10.396;2023-11-21T12:52:54;7.90;99.90
2723;DHT22;1369;53.216;10.396;2023-11-21T12:55:21;8.00;99.90
2723;DHT22;1369;53.216;10.396;2023-11-21T12:57:56;8.00;99.90
2723;DHT22;1369;53.216;10.396;2023-11-21T13:00:34;8.00;99.90
2723;DHT22;1369;53.216;10.396;2023-11-21T13:03:04;7.90;99.90
2723;DHT22;1369;53.216;10.396;2023-11-21T13:05:34;7.90;99.90
2723;DHT22;1369;53.216;10.396;2023-11-21T13:08:04;7.80;99.90
2723;DHT22;1369;53.216;10.396;2023-11-21T13:10:33;7.90;99.90
2723;DHT22;1369;53.216;10.396;2023-11-21T13:13:02;7.90;99.90
2723;DHT22;1369;53.216;10.396;2023-11-21T13:15:31;7.90;99.90
2723;DHT22;1369;53.216;10.396;2023-11-21T13:17:58;7.90;99.90
2723;DHT22;1369;53.216;10.396;2023-11-21T13:20:27;7.80;99.90
2723;DHT22;1369;53.216;10.396;2023-11-21T13:22:54;7.70;99.90
2723;DHT22;1369;53.216;10.396;2023-11-21T13:25:23;7.70;99.90
2723;DHT22;1369;53.216;10.396;2023-11-21T13:27:49;7.70;99.90
2723;DHT22;1369;53.216;10.396;2023-11-21T13:30:16;7.60;99.90
2723;DHT22;1369;53.216;10.396;2023-11-21T13:32:46;7.60;99.90
2723;DHT22;1369;53.216;10.396;2023-11-21T13:35:13;7.60;99.90
2723;DHT22;1369;53.216;10.396;2023-11-21T13:37:50;7.50;99.90
2723;DHT22;1369;53.216;10.396;2023-11-21T13:40:22;7.50;99.90
2723;DHT22;1369;53.216;10.396;2023-11-21T13:42:55;7.40;99.90
2723;DHT22;1369;53.216;10.396;2023-11-21T13:45:24;7.50;99.90
2723;DHT22;1369;53.216;10.396;2023-11-21T13:47:51;7.60;99.90
2723;DHT22;1369;53.216;10.396;2023-11-21T13:50:20;7.70;99.90
2723;DHT22;1369;53.216;10.396;2023-11-21T13:52:50;7.70;99.90
2723;DHT22;1369;53.216;10.396;2023-11-21T13:55:19;7.60;99.90
2723;DHT22;1369;53.216;10.396;2023-11-21T13:57:47;7.70;99.90
2723;DHT22;1369;53.216;10.396;2023-11-21T14:00:18;7.60;99.90
2723;DHT22;1369;53.216;10.396;2023-11-21T14:03:02;7.70;99.90
2723;DHT22;1369;53.216;10.396;2023-11-21T14:05:33;7.70;99.90
2723;DHT22;1369;53.216;10.396;2023-11-21T14:07:59;7.70;99.90
2723;DHT22;1369;53.216;10.396;2023-11-21T14:10:31;7.70;99.90
2723;DHT22;1369;53.216;10.396;2023-11-21T14:13:09;7.70;99.90
2723;DHT22;1369;53.216;10.396;2023-11-21T14:15:36;7.70;99.90
2723;DHT22;1369;53.216;10.396;2023-11-21T14:18:09;7.70;99.90
2723;DHT22;1369;53.216;10.396;2023-11-21T14:20:40;7.60;99.90
2723;DHT22;1369;53.216;10.396;2023-11-21T14:23:06;7.60;99.90
2723;DHT22;1369;53.216;10.396;2023-11-21T14:25:34;7.50;99.90
2723;DHT22;1369;53.216;10.396;2023-11-21T14:28:00;7.50;99.90
2723;DHT22;1369;53.216;10.396;2023-11-21T14:30:26;7.50;99.90
2723;DHT22;1369;53.216;10.396;2023-11-21T14:32:52;7.50;99.90
2723;DHT22;1369;53.216;10.396;2023-11-21T14:35:18;7.50;99.90
2723;DHT22;1369;53.216;10.396;2023-11-21T14:37:44;7.40;99.90
2723;DHT22;1369;53.216;10.396;2023-11-21T14:40:12;7.40;99.90
2723;DHT22;1369;53.216;10.396;2023-11-21T14:42:41;7.40;99.90
2723;DHT22;1369;53.216;10.396;2023-11-21T14:45:08;7.40;99.90
2723;DHT22;1369;53.216;10.396;2023-11-21T14:47:34;7.40;99.90
2723;DHT22;1369;53.216;10.396;2023-11-21T14:50:01;7.40;99.90
2723;DHT22;1369;53.216;10.396;2023-11-21T14:52:44;7.40;99.90
2723;DHT22;1369;53.216;10.396;2023-11-21T14:55:21;7.40;99.90
2723;DHT22;1369;53.216;10.396;2023-11-21T14:58:11;7.30;99.90
2723;DHT22;1369;53.216;10.396;2023-11-21T15:00:41;7.30;99.90
2723;DHT22;1369;53.216;10.396;2023-11-21T15:03:10;7.20;99.90
2723;DHT22;1369;53.216;10.396;2023-11-21T15:05:47;7.20;99.90
2723;DHT22;1369;53.216;10.396;2023-11-21T15:08:14;7.30;99.90
2723;DHT22;1369;53.216;10.396;2023-11-21T15:10:51;7.20;99.90
2723;DHT22;1369;53.216;10.396;2023-11-21T15:13:21;7.20;99.90
2723;DHT22;1369;53.216;10.396;2023-11-21T15:15:52;7.00;99.90
2723;DHT22;1369;53.216;10.396;2023-11-21T15:18:20;7.00;99.90
2723;DHT22;1369;53.216;10.396;2023-11-21T15:20:46;7.00;99.90
2723;DHT22;1369;53.216;10.396;2023-11-21T15:23:12;7.00;99.90
2723;DHT22;1369;53.216;10.396;2023-11-21T15:25:42;7.00;99.90
2723;DHT22;1369;53.216;10.396;2023-11-21T15:28:08;6.90;99.90
2723;DHT22;1369;53.216;10.396;2023-11-21T15:30:34;7.00;99.90
2723;DHT22;1369;53.216;10.396;2023-11-21T15:33:00;6.90;99.90
2723;DHT22;1369;53.216;10.396;2023-11-21T15:35:29;7.00;99.90
2723;DHT22;1369;53.216;10.396;2023-11-21T15:37:54;7.00;99.90
2723;DHT22;1369;53.216;10.396;2023-11-21T15:40:24;6.90;99.90
2723;DHT22;1369;53.216;10.396;2023-11-21T15:42:50;6.90;99.90
2723;DHT22;1369;53.216;10.396;2023-11-21T15:45:16;6.90;99.90
2723;DHT22;1369;53.216;10.396;2023-11-21T15:47:44;7.00;99.90
2723;DHT22;1369;53.216;10.396;2023-11-21T15:50:10;6.90;99.90
2723;DHT22;1369;53.216;10.396;2023-11-21T15:52:36;6.90;99.90
2723;DHT22;1369;53.216;10.396;2023-11-21T15:55:02;6.90;99.90
2723;DHT22;1369;53.216;10.396;2023-11-21T15:57:28;7.00;99.90
2723;DHT22;1369;53.216;10.396;2023-11-21T15:59:54;7.00;99.90
2723;DHT22;1369;53.216;10.396;2023-11-21T16:02:20;7.00;99.90
2723;DHT22;1369;53.216;10.396;2023-11-21T16:04:45;6.90;99.90
2723;DHT22;1369;53.216;10.396;2023-11-21T16:07:12;6.90;99.90
2723;DHT22;1369;53.216;10.396;2023-11-21T16:09:37;6.80;99.90
2723;DHT22;1369;53.216;10.396;2023-11-21T16:12:06;6.80;99.90
2723;DHT22;1369;53.216;10.396;2023-11-21T16:14:36;6.80;99.90
2723;DHT22;1369;53.216;10.396;2023-11-21T16:17:11;6.90;99.90
2723;DHT22;1369;53.216;10.396;2023-11-21T16:19:40;6.80;99.90
2723;DHT22;1369;53.216;10.396;2023-11-21T16:22:08;6.70;99.90
2723;DHT22;1369;53.216;10.396;2023-11-21T16:24:33;6.70;99.90
2723;DHT22;1369;53.216;10.396;2023-11-21T16:26:59;6.70;99.90
2723;DHT22;1369;53.216;10.396;2023-11-21T16:29:25;6.70;99.90